Time;durP1;ratioP1;P1;durP2;ratioP2;P2;SDS_P1;SDS_P2;PMS_P1;PMS_P2;Temp;Humidity;BMP_temperature;BMP_pressure;BME280_temperature;BME280_humidity;BME280_pressure;Samples;Min_cycle;Max_cycle;Signal;HPM_P1;HPM_P2
2023/02/24 00:18:59;;;;;;;29.40;18.80;;;;;;;6.30;78.71;97898.83;436531;1251;98917;-39
2023/02/24 00:29:10;;;;;;;36.30;19.30;;;;;;;6.38;78.90;97886.14;436668;1247;111809;-40
2023/02/24 00:39:17;;;;;;;48.50;25.00;;;;;;;6.42;79.23;97875.07;436673;1251;107507;-41
2023/02/24 00:49:25;;;;;;;45.50;24.10;;;;;;;6.42;79.29;97866.50;436580;1247;99211;-39
2023/02/24 00:59:32;;;;;;;36.60;22.30;;;;;;;6.41;79.31;97859.92;436612;1246;108440;-41
2023/02/24 01:29:55;;;;;;;47.50;24.30;;;;;;;6.57;79.57;97834.21;436666;1252;107531;-40
2023/02/24 01:50:16;;;;;;;36.00;21.80;;;;;;;6.48;79.56;97812.45;436684;1247;109008;-41
2023/02/24 02:21:14;;;;;;;45.60;23.70;;;;;;;6.59;79.76;97778.16;437237;1245;106890;-40
2023/02/24 02:41:50;;;;;;;36.10;19.80;;;;;;;6.52;79.87;97751.66;435701;1251;107627;-41
2023/02/24 03:02:13;;;;;;;45.60;22.40;;;;;;;6.62;80.00;97729.84;435798;1250;111518;-41
2023/02/24 03:12:22;;;;;;;;;;;;;;;6.60;80.07;97714.75;435647;1253;107797;-41
2023/02/24 03:22:28;;;;;;;45.60;22.90;;;;;;;6.53;80.08;97709.05;435803;1253;99218;-40
2023/02/24 03:32:33;;;;;;;40.00;20.80;;;;;;;6.51;80.06;97710.98;435347;1253;426629;-39
2023/02/24 03:42:41;;;;;;;39.20;20.60;;;;;;;6.57;80.11;97706.52;435670;1253;107391;-46
2023/02/24 03:52:51;;;;;;;40.40;21.50;;;;;;;6.66;80.30;97698.70;435812;1253;98810;-41
2023/02/24 04:13:09;;;;;;;53.60;26.70;;;;;;;6.55;80.37;97671.69;435769;1253;98294;-41
2023/02/24 04:23:20;;;;;;;37.40;21.50;;;;;;;6.51;80.35;97654.05;435887;1253;111952;-41
2023/02/24 04:33:28;;;;;;;39.00;21.40;;;;;;;6.57;80.60;97621.94;435873;1253;108580;-40
2023/02/24 04:53:42;;;;;;;50.70;26.90;;;;;;;6.58;80.68;97610.94;435641;1253;106310;-40
2023/02/24 05:03:49;;;;;;;47.20;25.40;;;;;;;6.44;80.69;97592.98;435773;1253;97985;-42
2023/02/24 05:13:56;;;;;;;34.60;21.60;;;;;;;6.36;80.70;97581.38;435685;1250;111194;-40
2023/02/24 05:24:05;;;;;;;37.30;22.20;;;;;;;6.40;80.88;97576.44;435594;1253;107915;-39
2023/02/24 05:34:16;;;;;;;43.90;25.40;;;;;;;6.48;80.94;97567.33;435577;1253;99271;-40
2023/02/24 05:44:25;;;;;;;44.50;27.00;;;;;;;6.50;81.16;97561.91;435634;1253;108828;-40
2023/02/24 05:54:36;;;;;;;45.70;26.90;;;;;;;6.44;81.47;97554.43;435764;1251;97999;-40
2023/02/24 06:14:56;;;;;;;29.00;19.30;;;;;;;6.46;81.82;97555.73;435607;1253;107497;-39
2023/02/24 06:25:04;;;;;;;32.80;20.00;;;;;;;6.51;82.19;97551.20;435695;1251;99217;-40
2023/02/24 06:35:12;;;;;;;34.00;21.70;;;;;;;6.57;82.33;97543.40;435524;1251;107504;-39
2023/02/24 06:45:20;;;;;;;31.50;20.90;;;;;;;6.57;82.57;97534.15;435606;1253;98009;-40
2023/02/24 06:55:26;;;;;;;45.20;25.30;;;;;;;6.52;82.80;97526.77;435577;1253;111587;-39
2023/02/24 07:05:34;;;;;;;49.30;27.90;;;;;;;6.41;83.12;97525.42;435617;1253;107624;-39
2023/02/24 07:15:47;;;;;;;41.10;26.20;;;;;;;6.41;83.33;97518.01;435515;1250;97997;-41
2023/02/24 07:25:57;;;;;;;41.80;27.10;;;;;;;6.48;83.34;97510.81;435729;1250;108741;-40
2023/02/24 07:46:14;;;;;;;38.20;25.30;;;;;;;6.64;83.79;97501.09;435711;1251;111456;-40
2023/02/24 07:56:25;;;;;;;45.40;28.40;;;;;;;6.64;83.95;97495.15;435663;1251;106260;-39
2023/02/24 08:16:40;;;;;;;41.50;26.60;;;;;;;6.65;84.32;97477.67;435686;1253;107740;-40
2023/02/24 08:26:52;;;;;;;47.10;28.50;;;;;;;6.66;84.51;97473.58;435941;1251;99211;-40
2023/02/24 08:37:00;;;;;;;39.10;24.90;;;;;;;6.70;84.69;97467.79;435910;1253;110823;-40
2023/02/24 08:47:12;;;;;;;35.90;23.90;;;;;;;6.76;84.95;97453.27;435774;1261;108440;-40
2023/02/24 08:57:24;;;;;;;36.70;24.70;;;;;;;6.75;85.21;97448.20;435896;1253;99236;-40
2023/02/24 09:07:35;;;;;;;32.10;21.50;;;;;;;6.80;85.37;97444.17;435799;1250;108595;-39
2023/02/24 09:18:00;;;;;;;29.50;19.10;;;;;;;6.98;85.65;97430.61;435809;1253;98827;-39
2023/02/24 09:28:09;;;;;;;30.80;19.60;;;;;;;7.10;86.10;97423.11;435785;1261;110320;-41
2023/02/24 09:38:18;;;;;;;23.70;15.90;;;;;;;7.19;86.25;97419.00;435719;1253;107351;-40
2023/02/24 09:48:29;;;;;;;28.20;17.40;;;;;;;7.20;86.40;97410.77;435969;1254;98862;-41
2023/02/24 09:58:46;;;;;;;29.80;18.70;;;;;;;7.17;86.58;97398.58;435840;1253;107811;-39
2023/02/24 10:08:53;;;;;;;34.60;19.50;;;;;;;7.02;87.00;97402.41;435834;1251;98588;-38
2023/02/24 10:39:25;;;;;;;26.30;15.40;;;;;;;6.96;87.31;97371.83;435273;1253;99109;-39
2023/02/24 11:10:24;;;;;;;27.10;15.70;;;;;;;6.89;87.39;97330.17;435356;1254;110790;-40
2023/02/24 11:20:35;;;;;;;23.20;15.40;;;;;;;6.90;87.53;97312.39;435521;1251;107715;-39
2023/02/24 11:30:58;;;;;;;20.60;13.20;;;;;;;6.86;87.40;97303.02;435812;1259;99346;-40
2023/02/24 11:51:13;;;;;;;19.90;12.60;;;;;;;7.22;87.92;97255.36;435960;1253;98004;-40
2023/02/24 12:01:20;;;;;;;17.70;10.90;;;;;;;7.30;87.65;97246.11;436003;1248;111788;-40
2023/02/24 12:11:31;;;;;;;18.10;10.80;;;;;;;7.38;87.71;97235.36;435908;1248;108495;-41
2023/02/24 12:21:40;;;;;;;27.10;15.60;;;;;;;7.32;87.68;97228.53;436176;1253;99316;-40
2023/02/24 12:42:01;;;;;;;18.10;11.50;;;;;;;7.37;87.69;97197.15;436138;1248;98716;-39
2023/02/24 12:52:08;;;;;;;14.60;9.60;;;;;;;7.41;87.73;97185.32;436097;1251;111874;-39
2023/02/24 13:02:14;;;;;;;14.80;9.20;;;;;;;7.17;87.61;97172.65;436288;1251;106967;-39
2023/02/24 13:12:26;;;;;;;14.70;8.90;;;;;;;6.95;87.55;97155.81;436130;1253;98052;-39
2023/02/24 13:22:40;;;;;;;15.00;8.60;;;;;;;7.02;87.84;97141.27;436149;1252;108163;-40
2023/02/24 13:43:19;;;;;;;20.60;11.00;;;;;;;6.70;87.61;97134.27;436249;1254;111326;-39
2023/02/24 13:53:30;;;;;;;16.90;10.60;;;;;;;6.50;87.52;97119.05;436084;1251;108398;-38
2023/02/24 14:03:40;;;;;;;60.30;25.80;;;;;;;6.48;87.59;97113.52;435889;1253;97972;-40
2023/02/24 14:13:50;;;;;;;50.10;19.50;;;;;;;6.46;87.63;97104.25;435988;1253;106849;-38
2023/02/24 14:23:55;;;;;;;;;;;;;;;6.29;87.62;97111.29;436039;1253;101528;-39
2023/02/24 14:34:04;;;;;;;32.70;15.80;;;;;;;6.21;87.79;97104.02;436106;1250;111740;-39
2023/02/24 14:44:16;;;;;;;30.70;14.50;;;;;;;6.23;87.91;97093.91;436090;1254;107607;-40
2023/02/24 14:54:37;;;;;;;32.40;17.70;;;;;;;6.36;88.29;97072.23;436215;1254;99148;-42
2023/02/24 15:04:46;;;;;;;26.30;14.60;;;;;;;6.45;88.08;97046.42;436219;1254;106804;-40
2023/02/24 15:14:54;;;;;;;33.90;18.50;;;;;;;6.34;87.79;97026.42;436157;1253;99107;-41
2023/02/24 15:25:09;;;;;;;24.00;16.60;;;;;;;6.36;88.05;97011.27;435936;1252;112378;-41
2023/02/24 15:35:21;;;;;;;27.00;14.20;;;;;;;6.50;88.09;96985.25;435757;1254;484254;-39
2023/02/24 15:45:28;;;;;;;41.90;25.80;;;;;;;6.38;87.66;96985.67;436152;1254;99212;-40
2023/02/24 15:55:36;;;;;;;86.50;46.10;;;;;;;6.25;88.18;96976.20;435976;1253;108253;-39
2023/02/24 16:05:43;;;;;;;50.10;30.20;;;;;;;6.16;87.89;96963.02;436192;1253;99218;-40
2023/02/24 16:15:51;;;;;;;45.60;25.90;;;;;;;6.09;87.81;96935.90;436005;1251;111386;-40
2023/02/24 16:25:59;;;;;;;49.90;31.80;;;;;;;6.06;87.92;96933.59;435524;1252;107257;-39
2023/02/24 16:36:12;;;;;;;67.10;42.50;;;;;;;5.99;88.01;96938.39;435616;1251;99217;-40
2023/02/24 16:46:22;;;;;;;90.70;54.90;;;;;;;5.83;88.15;96928.85;435527;1253;107408;-40
2023/02/24 16:56:30;;;;;;;71.80;41.80;;;;;;;5.68;88.06;96919.86;435432;1253;99313;-40
2023/02/24 17:06:38;;;;;;;112.20;59.40;;;;;;;5.75;88.32;96922.91;435335;1251;110771;-39
2023/02/24 17:16:45;;;;;;;148.40;83.10;;;;;;;5.78;88.12;96921.64;435376;1250;107447;-40
2023/02/24 17:26:51;;;;;;;109.40;57.70;;;;;;;5.80;88.23;96921.82;435912;1253;99317;-40
2023/02/24 17:36:59;;;;;;;154.20;81.20;;;;;;;5.76;88.43;96896.21;436076;1253;107760;-40
2023/02/24 17:57:12;;;;;;;123.90;70.90;;;;;;;5.40;88.16;96863.23;435909;1253;110795;-40
2023/02/24 18:17:27;;;;;;;120.70;68.70;;;;;;;5.33;88.49;96824.81;435931;1248;97989;-39
2023/02/24 18:27:34;;;;;;;168.00;94.00;;;;;;;5.39;88.79;96813.20;436025;1253;107605;-40
2023/02/24 18:37:41;;;;;;;227.10;117.40;;;;;;;5.35;88.72;96807.59;435972;1253;99234;-41
2023/02/24 18:47:50;;;;;;;139.50;78.80;;;;;;;5.18;88.37;96803.90;435897;1253;110860;-41
2023/02/24 18:57:57;;;;;;;141.10;86.30;;;;;;;5.10;88.35;96803.35;435815;1251;107236;-40
2023/02/24 19:08:03;;;;;;;129.50;75.40;;;;;;;5.07;88.57;96782.66;435887;1250;98942;-39
2023/02/24 19:28:17;;;;;;;111.40;62.70;;;;;;;5.05;88.84;96757.13;435757;1251;99246;-40
2023/02/24 19:38:25;;;;;;;102.10;58.50;;;;;;;5.04;89.08;96744.90;435931;1251;111765;-40
2023/02/24 19:48:31;;;;;;;153.80;78.90;;;;;;;4.96;89.10;96731.21;435863;1254;107612;-40
2023/02/24 19:58:39;;;;;;;147.10;76.70;;;;;;;4.82;89.40;96719.59;435933;1253;99259;-39
2023/02/24 20:08:46;;;;;;;117.70;71.50;;;;;;;4.76;89.13;96704.33;435830;1251;107024;-43
2023/02/24 20:18:55;;;;;;;114.50;65.80;;;;;;;4.74;89.28;96692.52;436134;1253;99250;-39
2023/02/24 20:29:03;;;;;;;118.80;70.70;;;;;;;4.90;89.61;96671.35;436039;1249;112021;-40
2023/02/24 20:49:19;;;;;;;148.00;77.80;;;;;;;4.84;89.28;96656.88;435959;1253;99047;-40
2023/02/24 20:59:27;;;;;;;130.40;61.00;;;;;;;4.66;89.66;96647.20;435945;1253;107205;-40
2023/02/24 21:19:42;;;;;;;52.90;29.70;;;;;;;4.67;89.76;96619.66;435859;1249;111622;-40
2023/02/24 21:29:49;;;;;;;51.00;27.20;;;;;;;4.66;89.87;96606.83;435369;1253;110515;-40
2023/02/24 21:39:55;;;;;;;35.90;22.40;;;;;;;4.61;89.80;96592.90;435412;1254;98879;-40
2023/02/24 21:50:03;;;;;;;35.00;19.90;;;;;;;4.62;89.75;96569.13;435488;1253;108218;-39
2023/02/24 22:00:17;;;;;;;87.60;43.00;;;;;;;4.43;89.74;96551.81;435424;1253;99237;-41
2023/02/24 22:10:24;;;;;;;101.70;44.50;;;;;;;4.31;89.80;96544.21;435509;1253;111531;-40
2023/02/24 22:20:31;;;;;;;73.70;36.20;;;;;;;4.13;89.83;96535.61;435463;1253;105647;-40
2023/02/24 22:30:39;;;;;;;58.40;31.30;;;;;;;4.00;89.49;96541.61;435789;1250;98012;-41
2023/02/24 22:40:57;;;;;;;30.50;19.40;;;;;;;3.98;89.63;96549.00;435883;1250;109582;-40
2023/02/24 22:51:04;;;;;;;27.10;14.60;;;;;;;3.96;89.61;96545.95;435779;1253;98335;-39
2023/02/24 23:01:11;;;;;;;23.90;14.10;;;;;;;3.71;89.77;96551.36;435751;1248;112356;-39
2023/02/24 23:11:20;;;;;;;20.10;11.80;;;;;;;3.57;89.69;96548.05;435802;1253;107786;-39
2023/02/24 23:31:41;;;;;;;36.10;20.10;;;;;;;3.45;89.81;96526.15;435849;1253;108035;-42
2023/02/24 23:41:48;;;;;;;39.20;22.10;;;;;;;3.33;89.83;96500.19;435836;1248;98843;-40
2023/02/24 23:51:55;;;;;;;26.50;15.00;;;;;;;3.30;89.59;96482.48;435710;1251;112813;-40
